Time;durP1;ratioP1;P1;durP2;ratioP2;P2;SDS_P1;SDS_P2;PMS_P1;PMS_P2;Temp;Humidity;BMP_temperature;BMP_pressure;BME280_temperature;BME280_humidity;BME280_pressure;Samples;Min_cycle;Max_cycle;Signal;HPM_P1;HPM_P2
2023/09/19 00:02:08;;;;;;;0.20;0.10;;;;;;;11.58;90.58;100254.44;5002604;28;20539;-69
2023/09/19 00:04:34;;;;;;;0.20;0.20;;;;;;;11.47;90.56;100258.25;5005014;28;20077;-68
2023/09/19 00:07:02;;;;;;;0.10;0.10;;;;;;;11.38;90.95;100257.94;5005972;28;20093;-69
2023/09/19 00:09:29;;;;;;;0.10;0.10;;;;;;;11.22;90.82;100259.81;5004978;28;20081;-68
2023/09/19 00:11:56;;;;;;;0.10;0.10;;;;;;;11.13;91.11;100255.94;5004632;28;20537;-68
2023/09/19 00:14:25;;;;;;;0.10;0.10;;;;;;;10.99;91.34;100266.56;5004869;28;20061;-67
2023/09/19 00:16:51;;;;;;;0.10;0.10;;;;;;;10.89;91.37;100268.16;5004914;28;20462;-69
2023/09/19 00:19:18;;;;;;;0.10;0.10;;;;;;;10.82;91.46;100267.56;5011696;28;20183;-67
2023/09/19 00:21:45;;;;;;;;;;;;;;;10.80;91.27;100269.75;5004373;28;20042;-68
2023/09/19 00:24:12;;;;;;;0.10;0.10;;;;;;;10.75;90.91;100258.78;5003044;28;20499;-70
2023/09/19 00:26:38;;;;;;;0.10;0.10;;;;;;;10.73;90.79;100263.69;5006375;28;20045;-68
2023/09/19 00:29:04;;;;;;;0.10;0.10;;;;;;;10.77;90.75;100267.53;5011304;28;20049;-69
2023/09/19 00:31:30;;;;;;;0.10;0.10;;;;;;;10.78;90.39;100267.28;5006061;28;20045;-68
2023/09/19 00:34:02;;;;;;;0.10;0.10;;;;;;;10.78;90.22;100266.47;5004247;28;20471;-68
2023/09/19 00:36:29;;;;;;;0.10;0.10;;;;;;;10.78;90.15;100261.81;5010020;28;20091;-71
2023/09/19 00:38:55;;;;;;;;;;;;;;;10.77;90.12;100265.63;4999714;28;20049;-71
2023/09/19 00:41:21;;;;;;;0.10;0.10;;;;;;;10.73;89.66;100267.25;5002237;28;19925;-70
2023/09/19 00:43:48;;;;;;;0.10;0.10;;;;;;;10.72;89.90;100268.34;5008008;28;20423;-71
2023/09/19 00:46:17;;;;;;;0.10;0.10;;;;;;;10.70;89.89;100275.16;4986487;28;20046;-70
2023/09/19 00:48:43;;;;;;;0.10;0.10;;;;;;;10.69;89.75;100273.50;5003629;28;20057;-71
2023/09/19 00:51:10;;;;;;;0.10;0.10;;;;;;;10.63;89.85;100270.75;4970042;28;20464;-71
2023/09/19 00:53:39;;;;;;;0.10;0.10;;;;;;;10.65;89.93;100275.94;5004460;28;20553;-71
2023/09/19 00:56:06;;;;;;;0.10;0.10;;;;;;;10.64;89.79;100283.34;4980916;28;20046;-71
2023/09/19 00:58:35;;;;;;;0.10;0.10;;;;;;;10.64;89.50;100275.13;5001871;28;20413;-71
2023/09/19 01:01:03;;;;;;;0.10;0.10;;;;;;;10.76;89.47;100277.66;5002851;28;20129;-72
2023/09/19 01:03:29;;;;;;;0.10;0.10;;;;;;;10.81;88.77;100273.31;5003160;28;20046;-71
2023/09/19 01:05:56;;;;;;;0.10;0.10;;;;;;;10.80;88.66;100280.69;5000001;28;20048;-72
2023/09/19 01:08:22;;;;;;;0.10;0.10;;;;;;;10.77;88.40;100273.84;5006979;28;20057;-71
2023/09/19 01:10:55;;;;;;;0.10;0.10;;;;;;;10.78;88.35;100275.47;4992682;28;20315;-68
2023/09/19 01:13:30;;;;;;;0.10;0.10;;;;;;;10.75;88.28;100267.81;5002824;28;20132;-70
2023/09/19 01:16:11;;;;;;;0.10;0.10;;;;;;;10.70;88.15;100264.22;5004409;28;20066;-68
2023/09/19 01:18:47;;;;;;;0.10;0.10;;;;;;;10.61;87.95;100270.19;5003334;28;20425;-69
2023/09/19 01:21:21;;;;;;;0.10;0.10;;;;;;;10.54;87.91;100266.84;5007438;28;20046;-68
2023/09/19 01:24:10;;;;;;;0.10;0.10;;;;;;;10.49;88.60;100266.84;5001753;28;20609;-68
2023/09/19 01:26:56;;;;;;;0.10;0.10;;;;;;;10.45;88.62;100261.06;5002870;28;20080;-68
2023/09/19 01:29:39;;;;;;;0.10;0.10;;;;;;;10.40;88.71;100268.34;4989629;28;20052;-68
2023/09/19 01:32:09;;;;;;;0.10;0.10;;;;;;;10.38;88.74;100263.19;4997846;28;20045;-68
2023/09/19 01:34:49;;;;;;;0.10;0.10;;;;;;;10.36;88.47;100263.44;4996817;28;20065;-67
2023/09/19 01:37:25;;;;;;;0.10;0.10;;;;;;;10.36;88.55;100260.69;5020264;28;20054;-69
2023/09/19 01:39:56;;;;;;;0.10;0.10;;;;;;;10.36;88.50;100252.50;4985176;28;20380;-68
2023/09/19 01:42:31;;;;;;;0.10;0.10;;;;;;;10.41;88.72;100256.38;4998749;28;20046;-67
2023/09/19 01:45:07;;;;;;;0.10;0.10;;;;;;;10.40;88.48;100251.97;5009495;28;20050;-68
2023/09/19 01:47:43;;;;;;;0.10;0.10;;;;;;;10.40;88.98;100255.53;5006388;28;20045;-69
2023/09/19 01:50:18;;;;;;;0.10;0.10;;;;;;;10.43;88.88;100252.28;5004660;28;20059;-67
2023/09/19 01:52:49;;;;;;;0.10;0.10;;;;;;;10.46;88.93;100249.03;5002302;28;20050;-69
2023/09/19 01:55:17;;;;;;;0.10;0.10;;;;;;;10.46;88.43;100242.75;5006400;28;20049;-69
2023/09/19 01:57:50;;;;;;;0.10;0.10;;;;;;;10.42;88.08;100241.63;5006461;28;20520;-68
2023/09/19 02:00:21;;;;;;;0.10;0.10;;;;;;;10.44;88.45;100248.47;5003001;28;20074;-71
2023/09/19 02:02:52;;;;;;;0.13;0.13;;;;;;;10.45;88.22;100246.56;4999844;28;20528;-68
2023/09/19 02:05:24;;;;;;;0.10;0.10;;;;;;;10.44;88.64;100240.28;5005256;28;20046;-68
2023/09/19 02:07:52;;;;;;;0.10;0.10;;;;;;;10.48;88.83;100241.38;4993201;28;20124;-68
2023/09/19 02:10:18;;;;;;;0.10;0.10;;;;;;;10.45;89.35;100236.44;4999763;28;20544;-68
2023/09/19 02:12:46;;;;;;;0.10;0.10;;;;;;;10.25;89.33;100209.75;5000291;28;20049;-69
2023/09/19 02:15:16;;;;;;;0.10;0.10;;;;;;;10.35;89.92;100233.59;5018120;28;20054;-68
2023/09/19 02:17:43;;;;;;;0.10;0.10;;;;;;;10.30;90.10;100226.22;5003080;28;20046;-68
2023/09/19 02:20:14;;;;;;;0.10;0.10;;;;;;;10.20;89.67;100228.88;5001007;28;20049;-66
2023/09/19 02:22:41;;;;;;;0.10;0.10;;;;;;;10.04;89.76;100226.00;5002765;28;20548;-69
2023/09/19 02:25:27;;;;;;;0.10;0.10;;;;;;;9.92;90.42;100222.63;5004332;28;20052;-72
2023/09/19 02:27:54;;;;;;;0.10;0.10;;;;;;;9.81;90.58;100229.06;5008854;28;20045;-68
2023/09/19 02:30:22;;;;;;;0.10;0.10;;;;;;;9.68;91.20;100217.53;5007784;28;20140;-68
2023/09/19 02:32:49;;;;;;;0.10;0.10;;;;;;;9.56;91.60;100223.13;5001738;28;20052;-69
2023/09/19 02:35:19;;;;;;;0.35;0.10;;;;;;;9.44;91.97;100215.09;5005844;28;20104;-68
2023/09/19 02:37:46;;;;;;;0.10;0.10;;;;;;;9.39;92.58;100220.50;4981898;28;20632;-67
2023/09/19 02:40:18;;;;;;;0.10;0.10;;;;;;;9.30;93.02;100220.13;5004626;28;20052;-68
2023/09/19 02:42:49;;;;;;;0.00;0.00;;;;;;;9.28;93.45;100218.72;5001464;28;20120;-69
2023/09/19 02:45:20;;;;;;;0.10;0.10;;;;;;;9.24;94.07;100212.16;5003867;28;20152;-68
2023/09/19 02:47:47;;;;;;;0.10;0.10;;;;;;;9.26;94.23;100223.63;4999365;28;20515;-68
2023/09/19 02:50:17;;;;;;;0.10;0.10;;;;;;;9.24;94.58;100223.88;5002895;28;20128;-68
2023/09/19 02:52:45;;;;;;;0.10;0.10;;;;;;;9.22;94.74;100228.75;5001918;28;20549;-68
2023/09/19 02:55:14;;;;;;;0.10;0.10;;;;;;;9.18;94.59;100228.44;5003976;28;20056;-68
2023/09/19 02:57:45;;;;;;;0.10;0.10;;;;;;;9.19;94.78;100223.81;5006373;28;20077;-68
2023/09/19 03:00:12;;;;;;;0.10;0.10;;;;;;;9.12;94.95;100209.53;4999942;28;20056;-68
2023/09/19 03:02:41;;;;;;;0.00;0.00;;;;;;;9.18;95.22;100216.72;4999452;28;20532;-68
2023/09/19 03:05:07;;;;;;;0.10;0.10;;;;;;;9.20;95.14;100223.53;5003514;28;20072;-68
2023/09/19 03:07:37;;;;;;;0.08;0.08;;;;;;;9.15;95.19;100217.22;5010133;28;20049;-68
2023/09/19 03:10:05;;;;;;;0.10;0.10;;;;;;;9.30;95.25;100224.75;5027453;28;20080;-67
2023/09/19 03:12:31;;;;;;;;;;;;;;;9.34;95.11;100224.00;5008142;28;20196;-68
2023/09/19 03:14:59;;;;;;;0.00;0.00;;;;;;;9.35;94.52;100222.91;5005939;28;19999;-70
2023/09/19 03:17:26;;;;;;;0.10;0.10;;;;;;;9.32;93.97;100226.16;4985746;28;20100;-68
2023/09/19 03:19:53;;;;;;;0.00;0.00;;;;;;;9.32;94.53;100223.44;5005693;28;20060;-69
2023/09/19 03:22:20;;;;;;;0.10;0.10;;;;;;;9.38;94.39;100229.78;5009095;28;20135;-69
2023/09/19 03:24:48;;;;;;;;;;;;;;;9.42;94.68;100224.59;5004096;28;20072;-68
2023/09/19 03:27:15;;;;;;;0.00;0.00;;;;;;;9.47;94.00;100220.03;4987890;28;20028;-68
2023/09/19 03:29:42;;;;;;;0.10;0.10;;;;;;;9.53;93.72;100218.19;5001900;28;20509;-68
2023/09/19 03:32:12;;;;;;;0.15;0.10;;;;;;;9.60;92.98;100223.44;4986070;28;20050;-67
2023/09/19 03:34:42;;;;;;;0.10;0.10;;;;;;;9.69;92.46;100230.09;5010324;28;20429;-69
2023/09/19 03:37:09;;;;;;;0.10;0.10;;;;;;;9.77;91.87;100232.34;4989826;28;20046;-69
2023/09/19 03:39:35;;;;;;;0.33;0.10;;;;;;;9.85;91.46;100232.97;4999207;28;20151;-68
2023/09/19 03:42:03;;;;;;;0.10;0.10;;;;;;;9.89;91.20;100231.34;5008438;28;20123;-68
2023/09/19 03:44:30;;;;;;;0.10;0.10;;;;;;;9.96;90.69;100221.00;5006219;28;20099;-69
2023/09/19 03:46:56;;;;;;;0.10;0.10;;;;;;;10.01;90.35;100223.81;5004717;28;20144;-71
2023/09/19 03:49:23;;;;;;;0.10;0.10;;;;;;;10.08;90.04;100218.94;5008971;28;20076;-71
2023/09/19 03:51:49;;;;;;;0.10;0.10;;;;;;;10.14;89.51;100222.53;4968563;28;20392;-68
2023/09/19 03:54:16;;;;;;;0.10;0.10;;;;;;;10.14;89.32;100214.34;5004795;28;20431;-68
2023/09/19 03:56:43;;;;;;;0.10;0.10;;;;;;;10.14;88.76;100222.53;5004032;28;20056;-70
2023/09/19 03:59:12;;;;;;;0.10;0.10;;;;;;;10.19;89.05;100222.56;5004162;28;20436;-71
2023/09/19 04:01:39;;;;;;;0.10;0.10;;;;;;;10.22;88.80;100223.97;4984864;28;20297;-72
2023/09/19 04:04:08;;;;;;;0.10;0.10;;;;;;;10.27;88.76;100228.66;5003337;28;20050;-71
2023/09/19 04:06:36;;;;;;;0.10;0.10;;;;;;;10.26;88.35;100230.53;4980969;28;20037;-72
2023/09/19 04:09:03;;;;;;;0.10;0.10;;;;;;;10.29;88.15;100223.75;4984804;28;20045;-68
2023/09/19 04:11:31;;;;;;;0.32;0.10;;;;;;;10.28;88.24;100231.09;5002996;28;20514;-68
2023/09/19 04:13:57;;;;;;;0.10;0.10;;;;;;;10.25;88.51;100212.50;4972022;28;20050;-69
2023/09/19 04:16:25;;;;;;;0.10;0.10;;;;;;;10.30;87.93;100215.28;4983797;28;20065;-67
2023/09/19 04:18:51;;;;;;;;;;;;;;;10.30;87.86;100206.25;4987071;28;20608;-68
2023/09/19 04:21:19;;;;;;;0.10;0.10;;;;;;;10.31;87.54;100210.63;5003241;28;19957;-68
2023/09/19 04:23:45;;;;;;;0.10;0.10;;;;;;;10.34;87.49;100210.94;4996893;28;20046;-68
2023/09/19 04:26:12;;;;;;;0.10;0.10;;;;;;;10.36;87.58;100210.66;5001864;28;20100;-69
2023/09/19 04:28:39;;;;;;;0.10;0.10;;;;;;;10.44;87.60;100212.94;5000947;28;20057;-68
2023/09/19 04:31:07;;;;;;;0.10;0.10;;;;;;;10.46;87.37;100199.81;5003836;28;20123;-67
2023/09/19 04:33:35;;;;;;;0.10;0.10;;;;;;;10.31;87.12;100178.66;4637411;28;10000461;-68
2023/09/19 04:36:05;;;;;;;0.10;0.10;;;;;;;10.55;87.05;100196.59;5001099;28;20075;-69
2023/09/19 04:38:31;;;;;;;0.10;0.10;;;;;;;10.60;86.93;100188.41;4997064;28;20466;-68
2023/09/19 04:40:58;;;;;;;0.10;0.10;;;;;;;10.63;86.65;100196.91;5000947;28;20050;-68
2023/09/19 04:43:25;;;;;;;0.10;0.10;;;;;;;10.68;86.82;100207.03;4971210;28;20188;-68
2023/09/19 04:45:55;;;;;;;0.10;0.10;;;;;;;10.69;86.53;100194.19;5003560;28;20056;-68
2023/09/19 04:48:23;;;;;;;0.10;0.10;;;;;;;10.69;86.32;100186.00;5004755;28;20042;-68
2023/09/19 04:50:52;;;;;;;0.13;0.10;;;;;;;10.71;86.11;100184.66;4999715;28;20049;-68
2023/09/19 04:53:20;;;;;;;0.17;0.17;;;;;;;10.64;85.85;100173.13;4998354;28;20060;-68
2023/09/19 04:55:51;;;;;;;0.10;0.10;;;;;;;10.68;85.87;100187.09;4978255;28;20060;-71
2023/09/19 04:58:17;;;;;;;0.10;0.10;;;;;;;10.70;86.24;100188.47;4985802;28;20053;-73
2023/09/19 05:00:43;;;;;;;0.10;0.10;;;;;;;10.75;86.25;100195.88;5006878;28;20056;-72
2023/09/19 05:03:10;;;;;;;0.10;0.10;;;;;;;10.85;86.07;100192.34;5001984;28;20412;-71
2023/09/19 05:05:38;;;;;;;0.10;0.10;;;;;;;10.97;85.05;100201.16;5004741;28;20049;-72
2023/09/19 05:08:06;;;;;;;0.10;0.10;;;;;;;11.10;84.83;100194.38;5003759;28;20093;-72
2023/09/19 05:10:33;;;;;;;0.10;0.10;;;;;;;11.23;84.60;100190.31;5006019;28;20044;-71
2023/09/19 05:13:00;;;;;;;0.10;0.10;;;;;;;11.31;84.00;100192.50;5002823;28;20084;-73
2023/09/19 05:15:27;;;;;;;0.10;0.10;;;;;;;11.43;83.65;100189.53;5005106;28;20052;-71
2023/09/19 05:17:55;;;;;;;0.10;0.10;;;;;;;11.46;83.11;100186.25;5005647;28;20509;-72
2023/09/19 05:20:29;;;;;;;0.10;0.10;;;;;;;11.56;82.75;100184.63;5002040;28;20531;-72
2023/09/19 05:23:02;;;;;;;0.10;0.10;;;;;;;11.65;82.45;100180.25;4999952;28;20148;-71
2023/09/19 05:25:31;;;;;;;0.10;0.10;;;;;;;11.76;82.25;100183.81;5000592;28;20128;-71
2023/09/19 05:27:59;;;;;;;0.10;0.10;;;;;;;11.87;81.58;100176.44;5009677;28;20045;-71
2023/09/19 05:30:27;;;;;;;0.10;0.10;;;;;;;11.94;81.01;100176.13;5002125;28;20053;-71
2023/09/19 05:32:54;;;;;;;0.25;0.17;;;;;;;11.99;80.79;100174.22;4992006;28;20503;-71
2023/09/19 05:35:21;;;;;;;0.10;0.10;;;;;;;11.74;80.73;100133.94;5000735;28;20069;-72
2023/09/19 05:37:50;;;;;;;0.20;0.20;;;;;;;12.03;80.70;100177.25;5001451;28;20617;-71
2023/09/19 05:40:17;;;;;;;0.20;0.20;;;;;;;12.04;80.48;100163.28;5003119;28;20049;-71
2023/09/19 05:42:45;;;;;;;0.10;0.10;;;;;;;12.06;80.63;100165.75;5005984;28;20130;-69
2023/09/19 05:45:18;;;;;;;0.10;0.10;;;;;;;12.11;80.72;100170.41;5002424;28;20072;-68
2023/09/19 05:47:45;;;;;;;0.20;0.20;;;;;;;12.04;80.52;100160.56;5005377;28;20041;-68
2023/09/19 05:50:12;;;;;;;0.15;0.15;;;;;;;12.11;80.46;100175.88;5004800;28;20045;-69
2023/09/19 05:52:38;;;;;;;0.20;0.20;;;;;;;12.14;80.71;100165.19;5005707;28;20220;-68
2023/09/19 05:55:06;;;;;;;0.20;0.20;;;;;;;12.27;80.08;100163.78;5004889;28;20056;-69
2023/09/19 05:57:33;;;;;;;0.20;0.20;;;;;;;12.52;79.04;100162.09;4999031;28;20513;-68
2023/09/19 06:00:01;;;;;;;0.10;0.10;;;;;;;12.62;78.25;100162.03;5006481;28;20057;-68
2023/09/19 06:02:30;;;;;;;0.20;0.20;;;;;;;12.72;78.36;100165.88;5003101;28;20050;-73
2023/09/19 06:04:56;;;;;;;0.10;0.10;;;;;;;12.76;77.71;100169.69;5003352;28;20045;-69
2023/09/19 06:07:26;;;;;;;0.20;0.20;;;;;;;12.81;77.82;100160.63;4992926;28;20057;-69
2023/09/19 06:09:53;;;;;;;0.20;0.20;;;;;;;12.91;77.21;100166.88;4993257;28;20061;-69
2023/09/19 06:12:19;;;;;;;;;;;;;;;13.04;76.79;100159.97;5007549;28;20132;-69
2023/09/19 06:14:46;;;;;;;0.20;0.20;;;;;;;13.11;76.21;100167.06;5006571;28;20015;-68
2023/09/19 06:17:15;;;;;;;0.20;0.20;;;;;;;13.26;76.13;100166.13;5005855;28;20536;-68
2023/09/19 06:19:43;;;;;;;0.20;0.20;;;;;;;13.52;75.20;100155.03;5006248;28;20054;-68
2023/09/19 06:22:10;;;;;;;0.20;0.20;;;;;;;13.86;74.35;100167.94;5005140;28;20050;-69
2023/09/19 06:24:36;;;;;;;0.20;0.20;;;;;;;14.18;72.73;100167.38;5004219;28;20058;-72
2023/09/19 06:27:04;;;;;;;0.30;0.30;;;;;;;14.36;71.84;100158.66;4999963;28;20042;-72
2023/09/19 06:29:30;;;;;;;0.20;0.20;;;;;;;14.56;70.98;100163.97;4977337;28;20591;-73
2023/09/19 06:31:57;;;;;;;0.30;0.30;;;;;;;14.84;70.16;100164.22;4985578;28;20042;-73
2023/09/19 06:34:25;;;;;;;0.28;0.28;;;;;;;14.83;69.49;100157.06;5001588;28;20071;-73
2023/09/19 06:36:52;;;;;;;0.20;0.20;;;;;;;14.85;69.59;100143.00;5003776;28;20050;-73
2023/09/19 06:39:18;;;;;;;0.20;0.20;;;;;;;14.92;68.92;100148.97;4998138;28;20046;-73
2023/09/19 06:41:46;;;;;;;0.20;0.20;;;;;;;14.89;69.02;100147.63;4993047;28;20045;-73
2023/09/19 06:44:12;;;;;;;0.20;0.20;;;;;;;14.96;69.25;100143.66;5001467;28;20305;-73
2023/09/19 06:46:40;;;;;;;0.30;0.30;;;;;;;15.10;68.55;100147.34;5002802;28;20038;-73
2023/09/19 06:49:07;;;;;;;0.30;0.30;;;;;;;15.20;67.84;100138.09;5011745;28;20335;-73
2023/09/19 06:51:34;;;;;;;0.20;0.20;;;;;;;15.54;67.27;100145.31;4997978;28;20139;-72
2023/09/19 06:54:01;;;;;;;0.30;0.30;;;;;;;15.95;65.71;100138.34;4996898;28;20140;-73
2023/09/19 06:56:27;;;;;;;0.30;0.30;;;;;;;16.38;64.24;100136.44;4999693;28;20501;-72
2023/09/19 06:58:54;;;;;;;0.30;0.30;;;;;;;16.84;62.74;100132.72;4988228;28;20140;-70
2023/09/19 07:01:20;;;;;;;0.30;0.30;;;;;;;17.29;61.36;100145.03;5000700;28;20145;-72
2023/09/19 07:03:46;;;;;;;0.30;0.30;;;;;;;17.12;60.85;100142.97;4996397;28;20095;-73
2023/09/19 07:06:13;;;;;;;0.30;0.30;;;;;;;16.91;62.01;100154.41;4997816;28;20428;-71
2023/09/19 07:08:41;;;;;;;0.30;0.30;;;;;;;16.60;63.36;100152.28;5010570;28;20524;-72
2023/09/19 07:11:07;;;;;;;0.20;0.20;;;;;;;16.64;62.67;100149.72;4990197;28;20091;-73
2023/09/19 07:13:35;;;;;;;0.30;0.30;;;;;;;16.47;63.39;100133.78;5000658;28;20061;-71
2023/09/19 07:16:01;;;;;;;0.30;0.30;;;;;;;16.54;63.81;100151.56;5010453;28;20136;-72
2023/09/19 07:18:28;;;;;;;0.30;0.30;;;;;;;16.21;64.56;100142.56;5011446;28;20140;-72
2023/09/19 07:21:01;;;;;;;0.30;0.30;;;;;;;15.77;66.46;100142.75;5009487;28;20052;-72
2023/09/19 07:23:27;;;;;;;0.30;0.30;;;;;;;15.69;67.48;100147.00;5008502;28;20046;-72
2023/09/19 07:25:58;;;;;;;0.30;0.30;;;;;;;15.77;67.17;100148.25;5008835;28;20061;-72
2023/09/19 07:28:25;;;;;;;0.30;0.30;;;;;;;15.96;66.49;100153.75;5010945;28;20048;-72
2023/09/19 07:30:52;;;;;;;0.30;0.30;;;;;;;16.02;66.37;100144.25;5008181;28;20038;-73
2023/09/19 07:33:19;;;;;;;0.30;0.30;;;;;;;16.08;66.46;100142.25;4991763;28;20065;-73
2023/09/19 07:35:48;;;;;;;0.30;0.30;;;;;;;16.20;65.80;100149.22;4993291;28;20112;-73
2023/09/19 07:38:15;;;;;;;0.30;0.30;;;;;;;16.24;66.15;100147.47;4992289;28;20046;-74
2023/09/19 07:40:41;;;;;;;0.30;0.30;;;;;;;16.15;65.92;100128.84;5009699;28;20070;-73
2023/09/19 07:43:09;;;;;;;0.30;0.30;;;;;;;16.36;65.81;100146.97;5006923;28;20069;-73
2023/09/19 07:45:36;;;;;;;0.30;0.30;;;;;;;16.58;65.08;100149.03;5005831;28;20124;-73
2023/09/19 07:48:04;;;;;;;0.30;0.30;;;;;;;16.86;64.13;100147.06;5009271;28;20124;-75
2023/09/19 07:50:30;;;;;;;0.30;0.30;;;;;;;16.74;63.39;100094.31;5008713;28;20104;-74
2023/09/19 07:52:57;;;;;;;0.30;0.30;;;;;;;16.76;63.82;100133.47;4988413;28;20057;-74
2023/09/19 07:55:23;;;;;;;0.30;0.30;;;;;;;16.71;64.40;100139.13;5008481;28;20543;-73
2023/09/19 07:57:50;;;;;;;0.23;0.23;;;;;;;16.48;65.27;100122.44;5008775;28;20050;-73
2023/09/19 08:00:17;;;;;;;0.30;0.30;;;;;;;16.38;65.49;100131.75;5009441;28;20057;-73
2023/09/19 08:02:44;;;;;;;0.30;0.30;;;;;;;16.25;66.37;100116.84;5003905;28;20052;-73
2023/09/19 08:05:11;;;;;;;0.20;0.20;;;;;;;16.47;66.16;100101.50;4986187;28;20149;-73
2023/09/19 08:07:39;;;;;;;0.30;0.30;;;;;;;16.52;65.72;100106.09;5006867;28;20065;-73
2023/09/19 08:10:13;;;;;;;0.35;0.35;;;;;;;16.48;65.68;100092.09;5006646;28;20595;-73
2023/09/19 08:12:46;;;;;;;0.30;0.30;;;;;;;16.72;65.53;100093.81;4998776;28;20057;-73
2023/09/19 08:15:14;;;;;;;0.30;0.30;;;;;;;16.95;64.46;100097.44;5001075;28;20532;-74
2023/09/19 08:17:42;;;;;;;0.30;0.30;;;;;;;17.22;63.91;100104.03;5014169;28;20053;-73
2023/09/19 08:20:18;;;;;;;0.40;0.40;;;;;;;17.80;61.92;100089.66;5002655;28;20054;-73
2023/09/19 08:22:49;;;;;;;0.30;0.30;;;;;;;18.36;59.65;100108.63;5018906;28;20547;-73
2023/09/19 08:25:18;;;;;;;0.30;0.30;;;;;;;18.36;59.34;100101.16;4997598;28;20807;-73
2023/09/19 08:27:49;;;;;;;0.30;0.30;;;;;;;18.23;59.81;100099.31;5002202;28;20061;-69
2023/09/19 08:30:18;;;;;;;0.30;0.30;;;;;;;18.11;60.04;100099.94;5003504;28;20062;-69
2023/09/19 08:32:47;;;;;;;0.30;0.30;;;;;;;18.14;60.39;100097.31;4972262;28;20060;-70
2023/09/19 08:35:14;;;;;;;0.30;0.30;;;;;;;18.22;60.14;100087.44;4989096;28;20053;-69
2023/09/19 08:37:42;;;;;;;0.30;0.30;;;;;;;18.32;60.22;100091.84;4997954;28;20149;-73
2023/09/19 08:40:09;;;;;;;0.43;0.40;;;;;;;18.42;59.83;100097.09;5000246;28;20308;-73
2023/09/19 08:42:51;;;;;;;0.30;0.30;;;;;;;18.41;59.28;100092.72;5001889;28;20064;-73
2023/09/19 08:45:17;;;;;;;0.30;0.30;;;;;;;18.18;60.00;100089.22;4998411;28;20054;-70
2023/09/19 08:47:57;;;;;;;0.22;0.22;;;;;;;17.82;61.01;100085.41;4999934;28;20085;-69
2023/09/19 08:50:28;;;;;;;0.30;0.30;;;;;;;17.69;61.73;100083.56;4994149;28;20077;-70
2023/09/19 08:52:55;;;;;;;0.30;0.30;;;;;;;17.52;62.26;100087.03;5001154;28;20421;-70
2023/09/19 08:55:26;;;;;;;0.30;0.30;;;;;;;17.35;62.83;100066.44;5001030;28;20378;-68
2023/09/19 08:58:01;;;;;;;0.30;0.30;;;;;;;17.32;63.38;100080.84;5004700;28;20072;-69
2023/09/19 09:00:30;;;;;;;0.30;0.30;;;;;;;17.20;63.70;100075.91;4981430;28;20045;-70
2023/09/19 09:03:02;;;;;;;0.30;0.30;;;;;;;17.09;63.99;100075.34;5000309;28;20054;-69
2023/09/19 09:05:32;;;;;;;0.30;0.30;;;;;;;16.95;64.54;100064.31;4985876;28;20141;-70
2023/09/19 09:07:59;;;;;;;0.30;0.30;;;;;;;16.93;64.70;100072.06;4989195;28;20053;-69
2023/09/19 09:10:27;;;;;;;0.28;0.28;;;;;;;16.88;64.78;100063.91;5008231;28;20057;-69
2023/09/19 09:12:55;;;;;;;0.28;0.28;;;;;;;16.57;65.67;100037.81;5009483;28;20061;-69
2023/09/19 09:15:23;;;;;;;0.20;0.20;;;;;;;16.63;66.27;100046.81;5007876;28;20065;-69
2023/09/19 09:17:53;;;;;;;0.30;0.30;;;;;;;16.90;65.67;100060.84;4976420;28;20061;-70
2023/09/19 09:20:20;;;;;;;0.30;0.30;;;;;;;16.95;65.71;100064.31;4982846;28;20046;-69
2023/09/19 09:22:54;;;;;;;0.30;0.30;;;;;;;16.91;65.57;100065.25;4994832;28;20046;-69
2023/09/19 09:25:23;;;;;;;0.30;0.30;;;;;;;16.90;66.09;100058.88;5003816;28;20420;-73
2023/09/19 09:28:01;;;;;;;0.30;0.30;;;;;;;17.10;65.85;100067.88;5006129;28;20148;-73
2023/09/19 09:30:35;;;;;;;0.30;0.30;;;;;;;17.36;64.83;100067.25;5005353;28;20073;-74
2023/09/19 09:33:11;;;;;;;0.30;0.30;;;;;;;17.68;64.18;100060.63;5001886;28;20100;-72
2023/09/19 09:35:51;;;;;;;0.40;0.40;;;;;;;17.95;63.26;100064.34;5004222;28;20117;-73
2023/09/19 09:38:18;;;;;;;0.30;0.30;;;;;;;18.28;62.06;100068.72;5004369;28;20053;-72
2023/09/19 09:41:01;;;;;;;0.30;0.30;;;;;;;18.51;61.10;100054.81;4995213;28;20473;-69
2023/09/19 09:43:30;;;;;;;0.30;0.30;;;;;;;18.56;60.66;100057.41;5001845;28;20064;-69
2023/09/19 09:51:57;;;;;;;0.30;0.30;;;;;;;18.85;59.89;100042.94;5001037;28;20050;-70
2023/09/19 09:54:27;;;;;;;0.30;0.30;;;;;;;18.72;60.35;100041.13;5004785;28;20060;-70
2023/09/19 09:57:01;;;;;;;0.30;0.30;;;;;;;18.55;60.56;100039.97;5005073;28;20219;-69
2023/09/19 09:59:49;;;;;;;0.30;0.30;;;;;;;18.43;61.13;100037.03;5006261;28;20541;-69
2023/09/19 10:02:22;;;;;;;0.30;0.30;;;;;;;18.45;61.08;100048.59;5004833;28;20464;-69
2023/09/19 10:04:51;;;;;;;0.30;0.30;;;;;;;18.48;61.26;100050.72;5002559;28;20115;-69
2023/09/19 10:07:35;;;;;;;0.30;0.30;;;;;;;18.44;61.27;100055.28;5006090;28;20096;-69
2023/09/19 10:10:21;;;;;;;0.30;0.30;;;;;;;18.49;61.02;100038.50;5003280;28;20054;-69
2023/09/19 10:12:48;;;;;;;0.30;0.30;;;;;;;18.62;60.65;100039.50;5009439;28;20220;-68
2023/09/19 10:15:17;;;;;;;0.30;0.30;;;;;;;18.77;60.40;100034.63;5004844;28;20121;-69
2023/09/19 10:17:45;;;;;;;0.30;0.30;;;;;;;18.87;60.31;100030.72;5005497;28;20048;-69
2023/09/19 10:20:24;;;;;;;0.30;0.30;;;;;;;19.03;59.60;100029.13;5006547;28;20054;-69
2023/09/19 10:23:02;;;;;;;0.30;0.30;;;;;;;19.03;59.89;100017.25;5006810;28;20056;-69
2023/09/19 10:25:30;;;;;;;0.40;0.40;;;;;;;19.27;59.21;100014.75;5007119;28;20057;-69
2023/09/19 10:27:58;;;;;;;0.40;0.40;;;;;;;19.69;57.72;100021.66;5007329;28;20104;-69
2023/09/19 10:30:25;;;;;;;0.40;0.40;;;;;;;19.84;57.24;100015.59;5009496;28;20046;-69
2023/09/19 10:33:02;;;;;;;0.40;0.40;;;;;;;20.33;56.02;100014.38;5005864;28;20049;-69
2023/09/19 10:35:28;;;;;;;0.40;0.40;;;;;;;20.65;54.86;100011.25;5003663;28;20467;-70
2023/09/19 10:37:59;;;;;;;0.50;0.50;;;;;;;21.19;53.58;100002.16;5007355;28;20307;-69
2023/09/19 10:40:30;;;;;;;0.40;0.40;;;;;;;22.12;50.84;99999.31;5009239;28;20645;-72
2023/09/19 10:43:05;;;;;;;0.30;0.30;;;;;;;22.25;50.12;100003.72;5009129;28;20098;-69
2023/09/19 10:45:32;;;;;;;0.30;0.30;;;;;;;21.84;50.83;99998.03;5005972;28;20073;-69
2023/09/19 10:47:59;;;;;;;0.50;0.50;;;;;;;21.35;52.01;99973.72;5005175;28;20275;-69
2023/09/19 10:50:28;;;;;;;0.40;0.40;;;;;;;21.86;51.41;99997.69;5010016;28;20089;-68
2023/09/19 10:53:04;;;;;;;0.70;0.70;;;;;;;22.56;49.78;99990.34;5006611;28;20155;-69
2023/09/19 10:55:32;;;;;;;0.60;0.60;;;;;;;23.05;48.65;99989.38;5002359;28;20510;-73
2023/09/19 10:58:00;;;;;;;0.50;0.50;;;;;;;23.84;46.82;99978.72;5005564;28;20096;-73
2023/09/19 11:00:27;;;;;;;0.77;0.77;;;;;;;24.89;44.28;99986.69;5001983;28;20076;-69
2023/09/19 11:03:18;;;;;;;;;;;;;;;25.36;43.48;99981.97;5003270;28;20358;-69
2023/09/19 11:06:10;;;;;;;0.90;0.90;;;;;;;26.74;39.94;99979.38;4988943;28;19925;-73
2023/09/19 11:09:07;;;;;;;0.80;0.80;;;;;;;27.70;38.09;99976.41;4957912;28;1298112;-69
2023/09/19 11:11:52;;;;;;;0.90;0.90;;;;;;;28.26;37.27;99976.44;5003634;28;20069;-70
2023/09/19 11:14:39;;;;;;;0.90;0.90;;;;;;;28.97;35.57;99966.75;5000018;28;20050;-69
2023/09/19 11:17:41;;;;;;;0.90;0.90;;;;;;;29.40;34.96;99968.84;5004454;28;20074;-73
2023/09/19 11:20:25;;;;;;;1.00;1.00;;;;;;;29.80;33.88;99971.69;5010542;28;20103;-73
2023/09/19 11:23:17;;;;;;;1.10;1.10;;;;;;;30.02;33.49;99968.88;5012769;28;20053;-73
2023/09/19 11:25:49;;;;;;;1.10;1.10;;;;;;;30.36;33.72;99974.06;5005300;28;20046;-73
2023/09/19 11:28:36;;;;;;;1.00;1.00;;;;;;;31.50;31.43;99975.97;4987854;28;20080;-72
2023/09/19 11:31:49;;;;;;;1.00;1.00;;;;;;;31.58;31.31;99970.28;5006868;28;20046;-73
2023/09/19 11:34:50;;;;;;;1.00;1.00;;;;;;;31.32;31.40;99962.00;4992296;28;20045;-72
2023/09/19 11:38:00;;;;;;;1.10;1.10;;;;;;;31.16;31.59;99967.31;4985915;28;20453;-73
2023/09/19 11:40:28;;;;;;;1.15;1.15;;;;;;;30.98;32.37;99963.38;5003978;28;20076;-69
2023/09/19 11:42:56;;;;;;;1.05;1.05;;;;;;;31.36;31.58;99959.13;5007925;28;20527;-68
2023/09/19 11:46:05;;;;;;;1.30;1.20;;;;;;;31.79;30.89;99950.34;5009971;28;20046;-69
2023/09/19 11:48:33;;;;;;;1.20;1.10;;;;;;;31.82;30.72;99955.13;4978653;28;20072;-70
2023/09/19 11:51:03;;;;;;;1.30;1.20;;;;;;;32.06;30.38;99944.03;5003577;28;20042;-68